Time;durP1;ratioP1;P1;durP2;ratioP2;P2;SDS_P1;SDS_P2;PMS_P1;PMS_P2;Temp;Humidity;BMP_temperature;BMP_pressure;BME280_temperature;BME280_humidity;BME280_pressure;Samples;Min_cycle;Max_cycle;Signal;HPM_P1;HPM_P2
2023/01/19 00:01:26;;;;;;;16.03;14.97;;;4.10;26.40;;;;;;5008242;28;20711;-76
2023/01/19 00:03:52;;;;;;;17.23;16.03;;;4.30;26.10;;;;;;5009080;28;20650;-75
2023/01/19 00:06:18;;;;;;;16.23;14.90;;;4.10;25.60;;;;;;5009056;28;20240;-75
2023/01/19 00:08:44;;;;;;;15.83;14.53;;;4.20;26.30;;;;;;5009634;28;20177;-74
2023/01/19 00:11:11;;;;;;;16.50;15.40;;;4.00;26.50;;;;;;5009864;28;20260;-74
2023/01/19 00:13:38;;;;;;;16.67;15.50;;;3.90;26.20;;;;;;5009742;28;20413;-75
2023/01/19 00:16:04;;;;;;;17.73;16.53;;;3.60;26.50;;;;;;5008771;28;20527;-74
2023/01/19 00:18:30;;;;;;;16.37;15.30;;;3.50;26.70;;;;;;5009223;28;20435;-75
2023/01/19 00:20:55;;;;;;;17.57;16.47;;;3.50;27.90;;;;;;5009504;28;20440;-75
2023/01/19 00:23:21;;;;;;;15.70;14.60;;;3.80;27.20;;;;;;5009253;28;20189;-75
2023/01/19 00:25:48;;;;;;;17.77;16.67;;;4.00;26.40;;;;;;5008700;28;20232;-75
2023/01/19 00:28:15;;;;;;;16.87;15.80;;;3.70;25.90;;;;;;5009053;28;20447;-74
2023/01/19 00:30:41;;;;;;;15.93;14.90;;;3.20;27.70;;;;;;5007909;28;20464;-75
2023/01/19 00:33:08;;;;;;;16.60;15.30;;;3.10;27.90;;;;;;5009156;28;20408;-76
2023/01/19 00:35:34;;;;;;;15.90;14.87;;;3.00;27.60;;;;;;5009253;28;20447;-76
2023/01/19 00:38:00;;;;;;;16.37;15.37;;;3.00;28.00;;;;;;5009405;28;20424;-75
2023/01/19 00:40:26;;;;;;;17.93;16.63;;;3.20;28.60;;;;;;5008197;28;20416;-75
2023/01/19 00:42:52;;;;;;;16.97;15.87;;;2.80;28.10;;;;;;5009280;28;20926;-76
2023/01/19 00:45:20;;;;;;;16.63;15.53;;;2.50;29.20;;;;;;4991640;28;20460;-75
2023/01/19 00:47:47;;;;;;;16.57;15.23;;;2.50;29.50;;;;;;5008891;28;20204;-75
2023/01/19 00:50:15;;;;;;;16.90;15.90;;;2.70;29.10;;;;;;5011797;28;20897;-74
2023/01/19 00:52:42;;;;;;;15.60;14.50;;;2.90;28.90;;;;;;5013300;28;20440;-74
2023/01/19 00:55:10;;;;;;;15.83;14.83;;;2.90;28.80;;;;;;5013046;28;20428;-74
2023/01/19 00:57:35;;;;;;;14.80;14.00;;;2.60;28.40;;;;;;5012796;28;20419;-74
2023/01/19 01:00:05;;;;;;;15.10;14.10;;;2.70;29.10;;;;;;5013202;28;20902;-75
2023/01/19 01:02:30;;;;;;;17.10;16.00;;;2.80;28.40;;;;;;5011455;28;20420;-75
2023/01/19 01:04:56;;;;;;;15.90;14.80;;;2.70;29.00;;;;;;5012971;28;20534;-74
2023/01/19 01:07:23;;;;;;;16.27;15.27;;;2.70;28.70;;;;;;5011335;28;20192;-74
2023/01/19 01:09:49;;;;;;;16.70;15.60;;;2.40;29.50;;;;;;5013287;28;20176;-76
2023/01/19 01:12:15;;;;;;;17.10;15.63;;;2.30;30.00;;;;;;5012558;28;20416;-74
2023/01/19 01:14:40;;;;;;;16.60;15.60;;;2.20;30.00;;;;;;5013287;28;20746;-75
2023/01/19 01:17:10;;;;;;;16.27;15.23;;;2.20;30.10;;;;;;5012760;28;20220;-74
2023/01/19 01:19:36;;;;;;;18.00;16.70;;;2.20;30.30;;;;;;5012930;28;20174;-75
2023/01/19 01:22:02;;;;;;;16.67;15.63;;;2.10;30.90;;;;;;5011877;28;20421;-75
2023/01/19 01:24:27;;;;;;;17.03;16.07;;;2.10;30.40;;;;;;5012302;28;20823;-74
2023/01/19 01:26:53;;;;;;;17.47;16.47;;;2.20;30.50;;;;;;5011920;28;20375;-76
2023/01/19 01:29:18;;;;;;;17.10;16.00;;;2.50;30.10;;;;;;5012891;28;20331;-75
2023/01/19 01:31:44;;;;;;;18.47;17.13;;;2.70;29.30;;;;;;4994688;28;20196;-75
2023/01/19 01:34:09;;;;;;;16.70;15.50;;;2.60;28.50;;;;;;5013088;28;20208;-76
2023/01/19 01:36:35;;;;;;;18.00;16.80;;;2.50;29.10;;;;;;5010847;28;20219;-75
2023/01/19 01:39:01;;;;;;;17.77;16.57;;;2.50;29.00;;;;;;5012518;28;20213;-76
2023/01/19 01:41:26;;;;;;;17.13;16.03;;;2.50;28.90;;;;;;5011429;28;20239;-75
2023/01/19 01:44:00;;;;;;;17.67;16.67;;;2.80;29.20;;;;;;5012593;28;20209;-75
2023/01/19 01:46:28;;;;;;;16.80;15.77;;;2.50;29.10;;;;;;5012175;28;20208;-76
2023/01/19 01:49:09;;;;;;;16.57;15.57;;;2.20;29.30;;;;;;5012622;28;20866;-74
2023/01/19 01:51:49;;;;;;;15.47;14.63;;;2.20;30.00;;;;;;5012917;28;20420;-75
2023/01/19 01:54:22;;;;;;;17.83;16.60;;;2.30;29.60;;;;;;5012424;28;20416;-75
2023/01/19 01:56:50;;;;;;;16.93;15.90;;;2.30;29.80;;;;;;5011691;28;20440;-75
2023/01/19 01:59:33;;;;;;;17.30;16.30;;;2.20;29.60;;;;;;5011833;28;20499;-75
2023/01/19 02:05:02;;;;;;;17.10;16.00;;;2.00;30.20;;;;;;5011794;28;20510;-76
2023/01/19 02:13:21;;;;;;;15.33;14.43;;;2.00;30.00;;;;;;5011977;28;20403;-75
2023/01/19 02:15:48;;;;;;;16.70;15.60;;;2.10;30.00;;;;;;5012331;28;20432;-75
2023/01/19 02:18:14;;;;;;;16.37;15.40;;;2.00;30.70;;;;;;5010725;28;20425;-74
2023/01/19 02:20:52;;;;;;;18.53;17.17;;;1.90;30.90;;;;;;5010712;28;20452;-75
2023/01/19 02:23:29;;;;;;;17.63;16.43;;;1.80;31.00;;;;;;5012498;28;20922;-74
2023/01/19 02:25:57;;;;;;;16.73;15.53;;;1.50;31.70;;;;;;5011974;28;20479;-75
2023/01/19 02:28:24;;;;;;;17.97;16.70;;;1.50;31.80;;;;;;5010138;28;20417;-74
2023/01/19 02:30:50;;;;;;;16.90;15.97;;;1.40;32.40;;;;;;5012030;28;20412;-75
2023/01/19 02:33:15;;;;;;;16.73;15.73;;;1.30;32.60;;;;;;5012182;28;20479;-75
2023/01/19 02:35:42;;;;;;;16.90;15.90;;;1.30;32.90;;;;;;5012353;28;20276;-75
2023/01/19 02:38:09;;;;;;;16.80;15.80;;;1.40;32.50;;;;;;5011921;28;20212;-74
2023/01/19 02:40:37;;;;;;;18.27;17.03;;;1.40;32.70;;;;;;5018914;28;20495;-74
2023/01/19 02:43:05;;;;;;;15.80;14.90;;;1.40;32.20;;;;;;5013646;28;20771;-75
2023/01/19 02:45:30;;;;;;;17.40;16.30;;;1.40;32.60;;;;;;5021777;28;20493;-76
2023/01/19 02:47:56;;;;;;;17.20;16.20;;;1.50;32.20;;;;;;5022961;28;20440;-74
2023/01/19 02:50:28;;;;;;;17.57;16.47;;;1.60;31.70;;;;;;5028976;28;20177;-72
2023/01/19 02:53:03;;;;;;;17.30;16.10;;;1.60;31.50;;;;;;5019894;28;20181;-75
2023/01/19 02:55:30;;;;;;;16.10;15.10;;;1.60;31.70;;;;;;5014054;28;20517;-75
2023/01/19 02:58:18;;;;;;;17.13;15.93;;;1.70;31.60;;;;;;5012495;28;20520;-75
2023/01/19 03:00:58;;;;;;;17.13;16.02;;;1.70;31.30;;;;;;5015693;28;20408;-74
2023/01/19 03:03:31;;;;;;;18.30;17.10;;;1.60;31.40;;;;;;5026364;28;20279;-75
2023/01/19 03:06:06;;;;;;;17.20;16.17;;;1.70;31.70;;;;;;5011383;28;20744;-75
2023/01/19 03:08:55;;;;;;;15.73;14.82;;;1.90;31.00;;;;;;5012971;28;20404;-75
2023/01/19 03:11:26;;;;;;;15.77;14.83;;;2.00;30.00;;;;;;5006571;28;20228;-75
2023/01/19 03:13:56;;;;;;;15.03;14.23;;;2.10;29.90;;;;;;5033701;28;20373;-74
2023/01/19 03:16:39;;;;;;;15.27;14.37;;;2.10;29.80;;;;;;5034392;28;20448;-74
2023/01/19 03:19:14;;;;;;;15.77;14.97;;;2.00;30.50;;;;;;5035750;28;20484;-74
2023/01/19 03:21:45;;;;;;;15.93;15.03;;;2.30;29.90;;;;;;5035242;28;20400;-74
2023/01/19 03:24:14;;;;;;;14.93;14.13;;;2.20;29.40;;;;;;5034618;28;20448;-73
2023/01/19 03:26:57;;;;;;;16.63;15.53;;;2.00;29.70;;;;;;5034466;28;20826;-75
2023/01/19 03:29:26;;;;;;;16.47;15.57;;;2.00;30.10;;;;;;5033113;28;20439;-73
2023/01/19 03:31:54;;;;;;;16.20;15.20;;;1.80;30.40;;;;;;5029841;28;20404;-74
2023/01/19 03:34:22;;;;;;;15.67;14.77;;;1.80;30.80;;;;;;5031331;28;20455;-74
2023/01/19 03:36:52;;;;;;;15.40;14.60;;;1.80;30.50;;;;;;5030978;28;20432;-74
2023/01/19 03:39:22;;;;;;;16.93;15.60;;;1.70;30.80;;;;;;5026428;28;20408;-75
2023/01/19 03:41:53;;;;;;;16.63;15.53;;;1.70;31.00;;;;;;5013837;28;20419;-75
2023/01/19 03:44:20;;;;;;;15.73;14.77;;;1.70;31.40;;;;;;5001220;28;20470;-75
2023/01/19 03:46:47;;;;;;;15.70;14.73;;;1.70;30.70;;;;;;5014690;28;20443;-75
2023/01/19 03:49:13;;;;;;;15.37;14.57;;;1.70;31.00;;;;;;5016446;28;20413;-75
2023/01/19 03:51:39;;;;;;;15.13;14.23;;;2.00;30.00;;;;;;5018413;28;20412;-74
2023/01/19 03:54:05;;;;;;;16.37;15.37;;;2.10;29.60;;;;;;5016876;28;20194;-75
2023/01/19 03:56:31;;;;;;;16.03;15.10;;;2.00;30.00;;;;;;5014474;28;20264;-75
2023/01/19 03:58:56;;;;;;;15.37;14.43;;;2.10;30.20;;;;;;5010230;28;20799;-75
2023/01/19 04:01:23;;;;;;;14.97;13.97;;;2.30;29.90;;;;;;4992125;28;20197;-75
2023/01/19 04:03:50;;;;;;;14.90;13.90;;;2.70;29.00;;;;;;5010121;28;20188;-75
2023/01/19 04:06:16;;;;;;;15.10;14.20;;;2.80;28.20;;;;;;5009610;28;20432;-75
2023/01/19 04:08:42;;;;;;;15.73;14.83;;;3.10;27.90;;;;;;5008723;28;20858;-75
2023/01/19 04:11:07;;;;;;;15.50;14.70;;;3.30;27.80;;;;;;5009938;28;20802;-75
2023/01/19 04:13:34;;;;;;;14.60;13.80;;;3.40;27.50;;;;;;5010253;28;20184;-75
2023/01/19 04:16:02;;;;;;;15.73;14.73;;;3.60;26.80;;;;;;5010912;28;20411;-75
2023/01/19 04:18:29;;;;;;;14.87;14.00;;;3.80;26.30;;;;;;5007995;28;20448;-75
2023/01/19 04:21:02;;;;;;;15.33;14.33;;;4.00;25.50;;;;;;5009318;28;20416;-75
2023/01/19 04:23:28;;;;;;;14.70;14.00;;;4.20;25.10;;;;;;5009153;28;20779;-74
2023/01/19 04:25:58;;;;;;;15.77;14.53;;;4.30;24.70;;;;;;5009065;28;20468;-74
2023/01/19 04:28:24;;;;;;;14.73;13.83;;;4.30;24.50;;;;;;5009332;28;20236;-75
2023/01/19 04:30:51;;;;;;;15.17;14.27;;;4.20;25.20;;;;;;5009518;28;20478;-75
2023/01/19 04:33:21;;;;;;;14.10;13.30;;;3.60;24.40;;;;;;5008686;28;20416;-75
2023/01/19 04:35:47;;;;;;;16.50;15.53;;;3.30;25.50;;;;;;5009102;28;20431;-74
2023/01/19 04:38:13;;;;;;;15.00;14.20;;;3.00;26.60;;;;;;5008731;28;20494;-75
2023/01/19 04:40:39;;;;;;;16.20;15.20;;;2.90;26.80;;;;;;5008596;28;20420;-74
2023/01/19 04:43:05;;;;;;;16.00;15.00;;;2.70;26.90;;;;;;4992025;28;20208;-75
2023/01/19 04:45:31;;;;;;;15.90;14.90;;;2.40;27.80;;;;;;5007489;28;20475;-75
2023/01/19 04:47:56;;;;;;;16.87;15.77;;;2.20;27.60;;;;;;5009672;28;20440;-76
2023/01/19 04:50:22;;;;;;;17.57;16.37;;;2.10;28.20;;;;;;5009395;28;20268;-76
2023/01/19 04:52:47;;;;;;;19.70;18.33;;;1.80;28.80;;;;;;5008024;28;20216;-75
2023/01/19 04:55:14;;;;;;;18.50;17.10;;;1.80;29.40;;;;;;5009603;28;20201;-74
2023/01/19 04:57:40;;;;;;;18.07;16.97;;;1.80;30.00;;;;;;5008967;28;20181;-75
2023/01/19 05:00:06;;;;;;;17.33;16.23;;;2.20;28.90;;;;;;5009917;28;20535;-75
2023/01/19 05:02:32;;;;;;;17.80;16.70;;;2.40;28.70;;;;;;5009789;28;20420;-75
2023/01/19 05:04:58;;;;;;;17.53;16.40;;;2.30;27.80;;;;;;5009031;28;20470;-75
2023/01/19 05:07:23;;;;;;;16.87;15.87;;;2.30;28.10;;;;;;5010076;28;20412;-75
2023/01/19 05:09:49;;;;;;;17.53;16.43;;;2.60;27.80;;;;;;5009907;28;20248;-74
2023/01/19 05:12:15;;;;;;;18.23;17.10;;;2.60;28.20;;;;;;5008420;28;20621;-77
2023/01/19 05:14:40;;;;;;;17.80;16.70;;;2.80;27.40;;;;;;5009365;28;20185;-74
2023/01/19 05:17:06;;;;;;;18.57;17.27;;;2.60;27.30;;;;;;5009889;28;20224;-73
2023/01/19 05:19:31;;;;;;;17.60;16.53;;;2.50;27.30;;;;;;5008580;28;20220;-74
2023/01/19 05:21:57;;;;;;;18.33;17.10;;;2.40;27.60;;;;;;4992058;28;20177;-74
2023/01/19 05:24:23;;;;;;;22.00;20.50;;;2.40;28.10;;;;;;5009658;28;20209;-74
2023/01/19 05:26:48;;;;;;;16.53;15.53;;;2.50;28.10;;;;;;5009688;28;20217;-74
2023/01/19 05:29:14;;;;;;;17.00;16.00;;;2.70;27.40;;;;;;5009868;28;20265;-74
2023/01/19 05:31:39;;;;;;;16.07;15.07;;;2.60;27.30;;;;;;5010232;28;20205;-75
2023/01/19 05:34:05;;;;;;;18.30;17.30;;;2.10;28.50;;;;;;5010044;28;20723;-75
2023/01/19 05:36:31;;;;;;;22.80;21.03;;;2.10;28.00;;;;;;5012486;28;20228;-74
2023/01/19 05:38:56;;;;;;;17.63;16.47;;;2.00;28.80;;;;;;5013713;28;20181;-74
2023/01/19 05:41:22;;;;;;;17.07;16.00;;;2.00;29.10;;;;;;5014421;28;20181;-74
2023/01/19 05:43:47;;;;;;;19.00;17.80;;;1.80;29.40;;;;;;5014255;28;20645;-75
2023/01/19 05:46:13;;;;;;;18.97;17.97;;;1.60;29.70;;;;;;5012243;28;20296;-73
2023/01/19 05:48:39;;;;;;;18.40;17.30;;;1.70;30.30;;;;;;5008558;28;20185;-74
2023/01/19 05:51:04;;;;;;;18.03;17.03;;;1.60;30.00;;;;;;5009101;28;20205;-73
2023/01/19 05:53:30;;;;;;;19.23;17.70;;;1.40;30.50;;;;;;5013699;28;20174;-73
2023/01/19 05:56:04;;;;;;;18.50;17.50;;;1.40;31.30;;;;;;5012338;28;20213;-74
2023/01/19 05:58:30;;;;;;;18.57;17.57;;;1.30;30.80;;;;;;5012218;28;20416;-73
2023/01/19 06:01:00;;;;;;;19.23;18.00;;;1.40;31.00;;;;;;5013948;28;20449;-74
2023/01/19 06:03:26;;;;;;;19.03;17.63;;;1.30;31.80;;;;;;5012073;28;20486;-74
2023/01/19 06:05:51;;;;;;;20.50;19.20;;;1.40;31.70;;;;;;5013860;28;20471;-73
2023/01/19 06:08:17;;;;;;;20.27;18.70;;;1.30;31.80;;;;;;5013652;28;20181;-73
2023/01/19 06:10:42;;;;;;;18.97;17.60;;;1.20;32.30;;;;;;5012355;28;20551;-74
2023/01/19 06:13:09;;;;;;;21.40;20.20;;;1.20;32.20;;;;;;5009299;28;20910;-74
2023/01/19 06:15:36;;;;;;;19.17;18.08;;;1.10;32.30;;;;;;5033354;28;20286;-74
2023/01/19 06:18:01;;;;;;;20.05;18.70;;;1.30;32.20;;;;;;5032115;28;20246;-73
2023/01/19 06:20:27;;;;;;;19.37;18.10;;;1.30;32.40;;;;;;5025076;28;20181;-73
2023/01/19 06:22:56;;;;;;;21.17;19.83;;;1.20;32.00;;;;;;5013791;28;20670;-74
2023/01/19 06:25:22;;;;;;;19.00;17.90;;;1.20;32.20;;;;;;5013564;28;20586;-74
2023/01/19 06:27:47;;;;;;;19.73;18.50;;;1.20;32.50;;;;;;5012245;28;20440;-72
2023/01/19 06:30:13;;;;;;;19.47;18.17;;;1.20;32.20;;;;;;5013531;28;20173;-74
2023/01/19 06:32:38;;;;;;;20.50;19.10;;;1.40;31.30;;;;;;5013385;28;20232;-74
2023/01/19 06:35:06;;;;;;;18.90;17.60;;;1.60;30.80;;;;;;5013331;28;20265;-73
2023/01/19 06:37:32;;;;;;;17.77;16.77;;;1.70;30.40;;;;;;5013452;28;20714;-73
2023/01/19 06:39:57;;;;;;;20.13;18.93;;;1.50;30.80;;;;;;5012628;28;20409;-73
2023/01/19 06:42:23;;;;;;;18.83;17.50;;;1.50;31.30;;;;;;5014027;28;20181;-73
2023/01/19 06:44:51;;;;;;;18.13;17.13;;;1.60;31.10;;;;;;5013605;28;20213;-73
2023/01/19 06:47:20;;;;;;;18.93;17.60;;;1.70;29.90;;;;;;5013307;28;20240;-73
2023/01/19 06:49:45;;;;;;;19.60;18.40;;;1.80;30.70;;;;;;5013184;28;20417;-74
2023/01/19 06:52:14;;;;;;;20.20;18.90;;;2.20;30.00;;;;;;5013706;28;20769;-74
2023/01/19 06:54:42;;;;;;;19.10;18.00;;;2.50;29.10;;;;;;5017871;28;20268;-75
2023/01/19 06:57:07;;;;;;;18.37;17.17;;;2.60;28.30;;;;;;5013500;28;20547;-74
2023/01/19 06:59:33;;;;;;;17.70;16.50;;;2.60;28.40;;;;;;5011779;28;20428;-73
2023/01/19 07:01:58;;;;;;;17.20;15.70;;;2.70;28.50;;;;;;5013153;28;20178;-75
2023/01/19 07:04:25;;;;;;;20.00;17.97;;;2.70;27.90;;;;;;5011527;28;20213;-74
2023/01/19 07:06:51;;;;;;;17.27;16.27;;;2.70;28.10;;;;;;5013184;28;20205;-74
2023/01/19 07:09:16;;;;;;;17.57;16.40;;;2.60;28.40;;;;;;5011570;28;20417;-74
2023/01/19 07:11:42;;;;;;;37.27;33.60;;;2.40;28.10;;;;;;5012717;28;20213;-74
2023/01/19 07:14:07;;;;;;;17.13;15.83;;;2.10;28.70;;;;;;5012832;28;20193;-75
2023/01/19 07:16:33;;;;;;;21.33;19.43;;;1.90;29.20;;;;;;5010628;28;20217;-76
2023/01/19 07:18:59;;;;;;;18.73;17.63;;;1.80;30.60;;;;;;5012974;28;20193;-73
2023/01/19 07:21:24;;;;;;;16.87;15.87;;;1.80;29.90;;;;;;5011434;28;20192;-77
2023/01/19 07:23:51;;;;;;;17.00;15.90;;;1.70;29.60;;;;;;5014825;28;20295;-74
2023/01/19 07:26:20;;;;;;;17.00;16.07;;;1.70;30.20;;;;;;5023447;28;20261;-76
2023/01/19 07:28:48;;;;;;;15.67;14.77;;;1.70;30.60;;;;;;5022794;28;20605;-76
2023/01/19 07:31:15;;;;;;;16.63;15.63;;;1.90;30.40;;;;;;5012726;28;20488;-76
2023/01/19 07:33:40;;;;;;;17.90;16.90;;;2.00;29.10;;;;;;5011022;28;20417;-74
2023/01/19 07:36:07;;;;;;;17.40;16.17;;;1.90;30.00;;;;;;5013672;28;20451;-74
2023/01/19 07:38:32;;;;;;;17.60;16.60;;;1.80;29.90;;;;;;4995282;28;20203;-76
2023/01/19 07:41:03;;;;;;;18.63;17.03;;;1.80;29.80;;;;;;5013557;28;20408;-75
2023/01/19 07:43:29;;;;;;;19.97;17.63;;;1.70;30.00;;;;;;5011776;28;20657;-73
2023/01/19 07:45:56;;;;;;;18.13;16.93;;;1.80;30.10;;;;;;4995620;28;20474;-74
2023/01/19 07:48:21;;;;;;;16.20;15.10;;;1.60;30.20;;;;;;5011586;28;20408;-75
2023/01/19 07:50:47;;;;;;;17.73;16.30;;;1.80;30.10;;;;;;5012887;28;20861;-73
2023/01/19 07:53:12;;;;;;;17.30;16.10;;;1.90;29.70;;;;;;5012556;28;20249;-76
2023/01/19 07:55:38;;;;;;;15.60;14.70;;;1.90;29.80;;;;;;5013228;28;20275;-76
2023/01/19 07:58:06;;;;;;;17.20;16.10;;;2.10;29.20;;;;;;5007848;28;20185;-74
2023/01/19 08:00:34;;;;;;;17.37;15.93;;;2.10;29.20;;;;;;5034877;28;20178;-73
2023/01/19 08:03:00;;;;;;;17.47;16.30;;;2.30;29.00;;;;;;5033974;28;20480;-73
2023/01/19 08:05:28;;;;;;;18.23;17.10;;;2.30;28.00;;;;;;5032593;28;20460;-75
2023/01/19 08:07:57;;;;;;;18.17;17.07;;;2.40;28.10;;;;;;5014922;28;20413;-73
2023/01/19 08:10:25;;;;;;;16.50;15.57;;;2.20;27.70;;;;;;5016372;28;20901;-74
2023/01/19 08:12:52;;;;;;;15.37;14.47;;;2.30;27.90;;;;;;5019183;28;20421;-75
2023/01/19 08:15:18;;;;;;;16.43;15.60;;;2.10;28.30;;;;;;5012361;28;20432;-75
2023/01/19 08:17:43;;;;;;;18.73;17.53;;;1.90;29.30;;;;;;4995139;28;20749;-76
2023/01/19 08:20:10;;;;;;;16.20;15.20;;;2.00;28.80;;;;;;5012535;28;20201;-76
2023/01/19 08:22:36;;;;;;;16.87;15.87;;;1.90;29.60;;;;;;5011813;28;20184;-75
2023/01/19 08:25:01;;;;;;;16.50;15.33;;;2.10;29.50;;;;;;5011647;28;20467;-75
2023/01/19 08:27:27;;;;;;;16.90;15.80;;;2.20;28.80;;;;;;5010438;28;20803;-72
2023/01/19 08:29:53;;;;;;;14.80;13.80;;;2.30;28.30;;;;;;5012679;28;20264;-75
2023/01/19 08:32:19;;;;;;;15.57;14.60;;;2.40;28.60;;;;;;5010521;28;20757;-75
2023/01/19 08:34:44;;;;;;;16.87;15.87;;;2.40;28.50;;;;;;5011983;28;20264;-74
2023/01/19 08:37:10;;;;;;;15.90;14.97;;;2.20;28.10;;;;;;5012055;28;20697;-74
2023/01/19 08:39:35;;;;;;;15.97;15.07;;;2.20;28.70;;;;;;5010853;28;20674;-75
2023/01/19 08:42:01;;;;;;;14.90;14.10;;;2.30;28.40;;;;;;5019649;28;20197;-76
2023/01/19 08:44:27;;;;;;;14.77;13.87;;;2.10;28.50;;;;;;5011136;28;20777;-75
2023/01/19 08:46:53;;;;;;;16.73;15.77;;;2.20;28.80;;;;;;5012339;28;20197;-75
2023/01/19 08:49:19;;;;;;;15.53;14.63;;;2.30;28.10;;;;;;5012772;28;20666;-74
2023/01/19 08:51:45;;;;;;;16.27;15.27;;;2.20;28.50;;;;;;5011999;28;20420;-76
2023/01/19 08:54:11;;;;;;;15.17;14.27;;;2.10;28.70;;;;;;4996949;28;20973;-75
2023/01/19 08:56:37;;;;;;;15.57;14.57;;;2.10;29.50;;;;;;5012130;28;20428;-73
2023/01/19 08:59:02;;;;;;;16.07;15.07;;;2.00;29.00;;;;;;5011482;28;20546;-75
2023/01/19 09:01:28;;;;;;;15.90;15.00;;;2.10;28.80;;;;;;5009116;28;20248;-75
2023/01/19 09:03:53;;;;;;;15.50;14.50;;;2.20;28.90;;;;;;5012857;28;20608;-75
2023/01/19 09:06:19;;;;;;;14.40;13.60;;;2.50;28.80;;;;;;5012653;28;20213;-75
2023/01/19 09:08:46;;;;;;;14.83;13.93;;;2.60;27.30;;;;;;5012408;28;20696;-76
2023/01/19 09:11:13;;;;;;;14.60;13.70;;;2.70;28.10;;;;;;5014219;28;20189;-76
2023/01/19 09:13:40;;;;;;;14.63;13.83;;;3.10;28.40;;;;;;5015310;28;20427;-76
2023/01/19 09:16:06;;;;;;;15.13;14.23;;;3.20;27.70;;;;;;5016223;28;20495;-76
2023/01/19 09:18:33;;;;;;;15.43;14.43;;;3.50;27.80;;;;;;5016438;28;20946;-76
2023/01/19 09:20:59;;;;;;;14.40;13.30;;;3.90;27.60;;;;;;5024923;28;20408;-76
2023/01/19 09:23:25;;;;;;;14.20;13.33;;;3.80;27.20;;;;;;5024822;28;20420;-76
2023/01/19 09:25:56;;;;;;;15.40;14.40;;;3.50;27.10;;;;;;5024867;28;20546;-75
2023/01/19 09:28:22;;;;;;;13.80;12.80;;;3.20;27.20;;;;;;5021194;28;21030;-75
2023/01/19 09:30:48;;;;;;;13.90;12.90;;;3.00;28.10;;;;;;4984547;28;20540;-75
2023/01/19 09:33:15;;;;;;;14.67;13.77;;;2.80;28.00;;;;;;5004256;28;20182;-74
2023/01/19 09:35:42;;;;;;;15.23;14.23;;;2.50;29.00;;;;;;4986764;28;20214;-75
2023/01/19 09:38:09;;;;;;;15.37;14.30;;;2.60;29.40;;;;;;5002832;28;20424;-75
2023/01/19 09:40:40;;;;;;;15.40;14.43;;;2.60;29.20;;;;;;4979274;28;20433;-75
2023/01/19 09:43:27;;;;;;;14.57;13.77;;;2.70;28.80;;;;;;4978917;28;20436;-75
2023/01/19 09:45:59;;;;;;;13.90;13.03;;;2.80;28.80;;;;;;4995390;28;20819;-74
2023/01/19 09:48:46;;;;;;;14.40;13.30;;;2.70;28.60;;;;;;4988679;28;20448;-75
2023/01/19 09:51:16;;;;;;;14.80;13.80;;;2.90;28.60;;;;;;4978991;28;20413;-75
2023/01/19 09:54:00;;;;;;;14.40;13.50;;;3.00;28.50;;;;;;4996832;28;20424;-76
2023/01/19 09:56:29;;;;;;;15.37;14.27;;;3.10;28.10;;;;;;4997039;28;20425;-75
2023/01/19 09:58:54;;;;;;;14.60;13.70;;;3.00;28.40;;;;;;5015875;28;20811;-75
2023/01/19 10:01:53;;;;;;;13.43;12.73;;;2.80;29.30;;;;;;5016186;28;20408;-76
2023/01/19 10:04:37;;;;;;;14.10;13.40;;;3.00;28.50;;;;;;5015450;28;20201;-76
2023/01/19 10:07:11;;;;;;;13.53;12.80;;;3.00;28.20;;;;;;5015717;28;20434;-76
2023/01/19 10:09:48;;;;;;;15.13;14.00;;;3.10;28.10;;;;;;5015536;28;20499;-76
2023/01/19 10:12:22;;;;;;;15.37;14.37;;;3.30;27.80;;;;;;5015528;28;20491;-75
2023/01/19 10:15:00;;;;;;;13.17;12.43;;;3.30;27.50;;;;;;5016038;28;20415;-76
2023/01/19 10:17:55;;;;;;;14.27;13.47;;;3.40;27.70;;;;;;5008189;28;20424;-76
2023/01/19 10:20:32;;;;;;;14.47;13.47;;;3.60;27.40;;;;;;5018361;28;20580;-76
2023/01/19 10:22:58;;;;;;;12.80;12.00;;;3.50;27.30;;;;;;5035037;28;20419;-76
2023/01/19 10:25:25;;;;;;;14.53;13.70;;;3.30;27.80;;;;;;5024378;28;20903;-74
2023/01/19 10:27:51;;;;;;;15.17;13.70;;;3.40;27.80;;;;;;5017085;28;20931;-75
2023/01/19 10:30:26;;;;;;;14.67;13.67;;;3.50;27.90;;;;;;5000332;28;20408;-75
2023/01/19 10:32:52;;;;;;;14.33;13.43;;;3.70;27.70;;;;;;5017987;28;20188;-75
2023/01/19 10:35:23;;;;;;;14.10;13.23;;;3.60;27.40;;;;;;5017665;28;20424;-75
2023/01/19 10:37:55;;;;;;;15.10;14.00;;;3.30;27.80;;;;;;5018159;28;20400;-75
2023/01/19 10:40:38;;;;;;;13.87;13.07;;;3.20;28.90;;;;;;5016855;28;20444;-75
2023/01/19 10:43:35;;;;;;;15.10;14.30;;;3.20;28.70;;;;;;5017496;28;20432;-75
2023/01/19 10:46:31;;;;;;;15.93;14.80;;;3.00;29.00;;;;;;5016825;28;20464;-75
2023/01/19 10:48:57;;;;;;;15.63;14.40;;;2.90;29.40;;;;;;5000418;28;20505;-75
2023/01/19 10:51:22;;;;;;;14.90;13.87;;;2.90;29.30;;;;;;5015118;28;20408;-75
2023/01/19 10:54:02;;;;;;;14.03;13.13;;;2.90;29.50;;;;;;5014788;28;20762;-74
2023/01/19 10:56:34;;;;;;;14.40;13.50;;;2.90;29.70;;;;;;4996146;28;20198;-75
2023/01/19 10:59:02;;;;;;;16.13;15.23;;;2.90;29.40;;;;;;5014266;28;20910;-76
2023/01/19 11:01:29;;;;;;;15.37;14.50;;;2.90;29.70;;;;;;5013883;28;20420;-76
2023/01/19 11:04:04;;;;;;;15.00;13.90;;;2.90;29.40;;;;;;5014167;28;20815;-75
2023/01/19 11:06:31;;;;;;;14.73;13.67;;;2.90;29.30;;;;;;5014320;28;20886;-75
2023/01/19 11:09:18;;;;;;;16.50;14.93;;;2.80;29.50;;;;;;5014260;28;20401;-75
2023/01/19 11:11:50;;;;;;;15.00;13.67;;;3.10;29.50;;;;;;5013981;28;20409;-75
2023/01/19 11:14:22;;;;;;;13.97;13.07;;;3.20;29.30;;;;;;5012806;28;20421;-73
2023/01/19 11:16:51;;;;;;;15.80;14.33;;;3.30;29.20;;;;;;5014424;28;20428;-75
2023/01/19 11:19:27;;;;;;;13.80;12.80;;;3.40;28.50;;;;;;4996583;28;20789;-74
2023/01/19 11:22:21;;;;;;;14.10;13.30;;;3.30;28.50;;;;;;5014355;28;20396;-76
2023/01/19 11:24:48;;;;;;;15.20;14.30;;;3.50;28.40;;;;;;5012576;28;20538;-75
2023/01/19 11:27:19;;;;;;;13.87;13.03;;;3.50;28.20;;;;;;5013760;28;20424;-74
2023/01/19 11:29:48;;;;;;;15.40;14.40;;;3.60;27.90;;;;;;5013784;28;20413;-75
2023/01/19 11:32:21;;;;;;;14.73;13.63;;;3.50;28.30;;;;;;5013528;28;20416;-75
2023/01/19 11:34:47;;;;;;;14.10;13.40;;;3.40;28.10;;;;;;5012947;28;20910;-75
2023/01/19 11:37:18;;;;;;;15.00;14.20;;;3.40;29.30;;;;;;5012392;28;20444;-75
2023/01/19 11:39:56;;;;;;;16.33;15.30;;;3.50;28.10;;;;;;5014661;28;20436;-76
2023/01/19 11:42:24;;;;;;;14.80;13.90;;;3.40;28.80;;;;;;5013986;28;20427;-74
2023/01/19 11:45:01;;;;;;;14.80;14.00;;;3.50;28.70;;;;;;5012638;28;20876;-76
2023/01/19 11:47:31;;;;;;;12.63;11.93;;;3.50;28.30;;;;;;5012463;28;20419;-76
2023/01/19 11:50:18;;;;;;;15.20;14.40;;;3.30;28.80;;;;;;5012132;28;20785;-75
2023/01/19 11:52:47;;;;;;;14.50;13.63;;;3.30;28.90;;;;;;4994052;28;20828;-74
2023/01/19 11:55:37;;;;;;;15.57;14.60;;;3.30;29.30;;;;;;4994260;28;20437;-76
2023/01/19 11:58:03;;;;;;;14.47;13.73;;;3.50;28.90;;;;;;4994404;28;20421;-75
2023/01/19 12:01:06;;;;;;;14.07;13.27;;;3.50;28.80;;;;;;4995609;28;20417;-75
2023/01/19 12:03:43;;;;;;;13.90;13.00;;;3.50;28.70;;;;;;4996349;28;20416;-75
2023/01/19 12:06:17;;;;;;;14.30;13.50;;;3.50;27.90;;;;;;4995138;28;20507;-76
2023/01/19 12:08:52;;;;;;;15.60;14.60;;;3.60;28.20;;;;;;4995257;28;20421;-76
2023/01/19 12:11:25;;;;;;;13.90;13.20;;;3.50;27.90;;;;;;4996209;28;21061;-75
2023/01/19 12:13:51;;;;;;;13.80;13.00;;;3.60;28.40;;;;;;4996619;28;20420;-75
2023/01/19 12:16:23;;;;;;;13.13;12.30;;;3.80;28.10;;;;;;5015526;28;20436;-73
2023/01/19 12:18:57;;;;;;;13.03;12.23;;;3.70;28.00;;;;;;5014569;28;20416;-74
2023/01/19 12:21:23;;;;;;;12.23;11.63;;;3.80;28.10;;;;;;5013952;28;20434;-75
2023/01/19 12:23:54;;;;;;;13.73;12.83;;;3.80;27.50;;;;;;5014602;28;20413;-74
2023/01/19 12:26:32;;;;;;;13.17;12.40;;;3.90;28.10;;;;;;5015935;28;20225;-76
2023/01/19 12:29:14;;;;;;;14.63;13.23;;;3.80;27.80;;;;;;5015344;28;20812;-75
2023/01/19 12:31:43;;;;;;;13.80;13.10;;;4.00;27.60;;;;;;5014927;28;21081;-75
2023/01/19 12:34:24;;;;;;;13.40;12.37;;;4.10;27.00;;;;;;5015050;28;20423;-76
2023/01/19 12:36:51;;;;;;;12.97;12.17;;;4.20;27.10;;;;;;5013902;28;20859;-75
2023/01/19 12:39:19;;;;;;;13.33;12.53;;;4.10;26.90;;;;;;5013051;28;20420;-75
2023/01/19 12:41:46;;;;;;;13.70;12.70;;;4.20;26.80;;;;;;5012634;28;20409;-74
2023/01/19 12:44:12;;;;;;;12.97;12.33;;;4.20;27.20;;;;;;5012309;28;20405;-75
2023/01/19 12:47:13;;;;;;;13.03;12.23;;;4.10;26.80;;;;;;5012526;28;20508;-74
2023/01/19 12:49:55;;;;;;;13.33;12.40;;;4.20;26.80;;;;;;4994986;28;20784;-75
2023/01/19 12:52:46;;;;;;;14.40;13.50;;;4.20;26.50;;;;;;5012393;28;20434;-75
2023/01/19 12:55:12;;;;;;;14.33;13.60;;;4.30;27.10;;;;;;5012592;28;20436;-75